Aviation Digital Data Service (ADDS)

Output produced by METARs form (0243 UTC 24 July 2017)
found at http://www.aviationweather.gov/adds/metars/
 
WBGB 240200Z 14005KT 080V200 9999 SCT014 SCT150 BKN300 29/26 Q1010
TAF WBGB 232300Z 2400/2424 32008KT 9999 FEW016 SCT150 BKN300
       
WMKB 240200Z 06003KT 010V120 4000 HZ FEW018 BKN280 31/27 Q1010 NOSIG
TAF WMKB 232300Z 2400/2424 07005KT 7000 FEW020 SCT140 BKN270 
     BECMG 2400/2404 5000 HZ FEW018 
     BECMG 2404/2406 24010KT 7000
       
WMKE 240200Z 18006KT 120V240 9000 SCT018 SCT140 BKN280 29/25 Q1009
TAF WMKE 232300Z 2400/2424 18005KT 9999 FEW018 SCT140 BKN280
       
TAF WMAP 232300Z 2400/2424 VRB02KT 9999 FEW018 SCT140 BKN280
       
WBKK 240230Z 22009KT 9999 FEW014 SCT140 BKN270 30/25 Q1009 NOSIG
TAF WBKK 232300Z 2400/2500 28005KT 9999 FEW014 
     BECMG 2413/2415 11005KT
       
WMKK 240230Z 15007KT 100V200 9999 FEW017CB SCT018 BKN280 30/25 Q1011 NOSIG
TAF WMKK 232300Z 2400/2506 16005KT 9000 FEW018 SCT140 BKN280
       
WMKD 240200Z 20006KT 150V240 9999 FEW018 SCT160 BKN280 29/26 Q1010 NOSIG
WBGG 240230Z 17003KT 9999 FEW014 BKN300 30/25 Q1010 NOSIG
TAF WBGG 232300Z 2400/2500 23007KT 9999 FEW020 SCT150 BKN300 
     TEMPO 2408/2411 22010G25KT 2000 TSRA FEW015CB SCT020 BKN150
       
WBKL 240200Z VRB04KT 9999 FEW014 SCT140 BKN290 29/25 Q1009
TAF WBKL 232300Z 2400/2424 VRB03KT 9999 FEW012 FEW014CB
       
WMKL 240200Z VRB02KT 9999 FEW020TCU BKN280 30/26 Q1010
TAF WMKL 232300Z 2400/2424 25005KT 9999 FEW025 SCT140 BKN280
       
WMKM 240200Z VRB03KT 9000 SCT020 SCT150 BKN280 30/26 Q1011
TAF WMKM 232300Z 2400/2424 14005KT 9999 FEW022 SCT140 BKN280
       
WBGR 240200Z 19005KT 090V240 9999 FEW016 SCT150 BKN300 30/25 Q1009
TAF WBGR 232300Z 2400/2424 29009KT 9999 FEW016 SCT150 BKN300
       
WBGB 240200Z 14005KT 080V200 9999 SCT014 SCT150 BKN300 29/26 Q1010
TAF WBGB 232300Z 2400/2424 32008KT 9999 FEW016 SCT150 BKN300
       
WBGG 240230Z 17003KT 9999 FEW014 BKN300 30/25 Q1010 NOSIG
TAF WBGG 232300Z 2400/2500 23007KT 9999 FEW020 SCT150 BKN300 
     TEMPO 2408/2411 22010G25KT 2000 TSRA FEW015CB SCT020 BKN150
       
WBGR 240200Z 19005KT 090V240 9999 FEW016 SCT150 BKN300 30/25 Q1009
TAF WBGR 232300Z 2400/2424 29009KT 9999 FEW016 SCT150 BKN300
       
WBGS 240200Z 15004KT 090V220 9999 FEW018 BKN300 30/24 Q1011
TAF WBGS 232300Z 2400/2424 28006KT 9999 FEW018 SCT150 BKN300
       
WBGY 240200Z 16003KT 9999 FEW016 BKN300 30/26 Q1010
WBKK 240230Z 22009KT 9999 FEW014 SCT140 BKN270 30/25 Q1009 NOSIG
TAF WBKK 232300Z 2400/2500 28005KT 9999 FEW014 
     BECMG 2413/2415 11005KT
       
WBKL 240200Z VRB04KT 9999 FEW014 SCT140 BKN290 29/25 Q1009
TAF WBKL 232300Z 2400/2424 VRB03KT 9999 FEW012 FEW014CB
       
WBKS 240200Z 20004KT 9999 SCT017 BKN300 31/26 Q1009
TAF WBKS 232300Z 2400/2424 13005KT 9999 FEW015 
     TEMPO 2408/2412 4000 TSRA FEW014 FEW016CB SCT040 BKN280
       
WBKT 240200Z 25011KT 210V280 9999 FEW015 BKN280 31/24 Q1009
WBKW 240200Z VRB03KT 9999 FEW016CB SCT030 BKN140 28/25 Q1009
TAF AMD WBKW 232340Z 2400/2424 17006KT 9999 FEW017 
     TEMPO 2400/2402 5000 RA FEW013 FEW016CB SCT040 BKN260
       
WBSB 240230Z 21007KT 9999 FEW016 BKN300 31/25 Q1010 NOSIG
TAF WBSB 232250Z 2400/2506 21003KT 8000 FEW015 SCT140 
     BECMG 2403/2405 FEW016 FEW017CB 
     PROB40 
     TEMPO 2404/2406 5000 SHRA SCT015 FEW016CB
       
WMKP 240230Z 21005KT 7000 FEW020 BKN280 31/25 Q1010 NOSIG
TAF WMKP 232300Z 2400/2500 04005KT 8000 FEW025 SCT140 BKN270 
     BECMG 2403/2405 21010KT 
     TEMPO 2404/2408 5000 TSRA FEW010 FEW017CB SCT023 BKN260
       
TAF WMBT 232300Z 2400/2424 18005KT 9999 FEW020 SCT140 BKN270
       
WBKS 240200Z 20004KT 9999 SCT017 BKN300 31/26 Q1009
TAF WBKS 232300Z 2400/2424 13005KT 9999 FEW015 
     TEMPO 2408/2412 4000 TSRA FEW014 FEW016CB SCT040 BKN280
       
WBGS 240200Z 15004KT 090V220 9999 FEW018 BKN300 30/24 Q1011
TAF WBGS 232300Z 2400/2424 28006KT 9999 FEW018 SCT150 BKN300
       
WMSA 240200Z 15006KT 080V190 9999 FEW017CB BKN280 30/24 Q1011
TAF WMSA 232300Z 2400/2500 18005KT 8000 FEW020 SCT140 BKN280
       
WMKA 240200Z VRB02KT 6000 FEW020 BKN280 29/26 Q1010
TAF WMKA 232300Z 2400/2424 25005KT 7000 FEW030 SCT140 BKN280
       
WMKI 240200Z 04004KT 340V080 8000 FEW020 BKN280 29/23 Q1010
TAF WMKI 232300Z 2400/2424 20005KT 9000 FEW020 SCT140 BKN280 
     TEMPO 2410/2414 4000 TSRA FEW015CB SCT018 BKN150
       
WMKJ 240200Z VRB03KT 9999 FEW018 BKN300 30/25 Q1010
TAF WMKJ 232300Z 2400/2500 17005KT 9999 FEW024 SCT140 BKN280
       
WMKC 240200Z 23004KT 160V290 9999 FEW018 BKN280 29/25 Q1010
TAF WMKC 232300Z 2400/2424 21005KT 9999 FEW017CB SCT140 BKN280 
     TEMPO 2412/2416 4000 TSRA FEW010 FEW015CB SCT018
       
WMKN 240200Z VRB03KT 9999 FEW017CB BKN300 29/26 Q1009
TAF COR WMKN 232300Z 2400/2424 19005KT 9999 FEW017CB SCT150 BKN300 
     TEMPO 2408/2412 4000 TSRA FEW010 FEW015CB SCT018
       
WBKW 240200Z VRB03KT 9999 FEW016CB SCT030 BKN140 28/25 Q1009
TAF AMD WBKW 232340Z 2400/2424 17006KT 9999 FEW017 
     TEMPO 2400/2402 5000 RA FEW013 FEW016CB SCT040 BKN260